Cascalho Rico, Brazil
Current Conditions -  °F | °C
As of 4:00 PM on Tuesday 21 Oct 2014 (Local Time) from SBUL Reporting Station
Scattered Clouds Scattered Clouds  
Wind Chill: 86°   Ceiling: Unl
Heat Index: 86°   Visibility: 6mi
Dew Point: 54°   Wind: 5mph
Humidity: 33%   Direction: 40°NE
Pressure: 29.97"   Gusts: NA
Location:  18.58°S, 47.88°W
Report Text: SBUL 211800Z 04004KT 9999 FEW045 FEW049TCU SCT080 30/12 Q1015
Loading
Personal Weather Stations






























Interactive Weather Map
Tropical Storm Tracking
New forecast layout! Learn more

10-Day Weather Forecast

Advertisements
Track Severe Weather on mobile